Time,TemperatureF,DewpointF,PressureIn,WindDirection,WindDirectionDegrees,WindSpeedMPH,WindSpeedGustMPH,Humidity,HourlyPrecipIn,Conditions,Clouds,dailyrainin,SoftwareType,DateUTC
2013-02-04 00:01:00,48.5,48.2,29.83,SW,226,23.0,24.0,99,0.00,,---,0.00,VWS V14.00,2013-02-04 00:01:00,
2013-02-04 00:07:00,48.4,48.1,29.83,SW,214,11.0,22.0,99,0.00,,---,0.00,VWS V14.00,2013-02-04 00:07:00,
2013-02-04 00:12:00,48.5,48.2,29.83,SW,226,19.0,22.0,99,0.00,,---,0.00,VWS V14.00,2013-02-04 00:12:00,
2013-02-04 00:17:00,48.5,48.2,29.83,WSW,241,19.0,20.0,99,0.00,,---,0.00,VWS V14.00,2013-02-04 00:17:00,
2013-02-04 00:22:00,48.5,48.2,29.83,WSW,238,15.0,18.0,99,0.00,,---,0.00,VWS V14.00,2013-02-04 00:22:00,
2013-02-04 00:27:00,48.5,48.2,29.82,SW,235,18.0,22.0,99,0.00,,---,0.00,VWS V14.00,2013-02-04 00:27:00,
2013-02-04 00:32:00,48.5,48.2,29.82,WSW,246,22.0,25.0,99,0.00,,---,0.00,VWS V14.00,2013-02-04 00:32:00,
2013-02-04 00:37:00,48.6,48.3,29.83,WSW,238,20.0,24.0,99,0.00,,---,0.00,VWS V14.00,2013-02-04 00:37:00,
2013-02-04 00:42:00,48.6,48.3,29.82,SW,227,23.0,26.0,99,0.00,,---,0.00,VWS V14.00,2013-02-04 00:42:00,
2013-02-04 00:47:00,48.7,48.4,29.83,WSW,250,12.0,21.0,99,0.01,,---,0.01,VWS V14.00,2013-02-04 00:47:00,
2013-02-04 00:52:00,48.7,48.4,29.83,WSW,237,17.0,27.0,99,0.01,,---,0.01,VWS V14.00,2013-02-04 00:52:00,
2013-02-04 00:57:00,48.6,48.3,29.82,SW,218,16.0,19.0,99,0.01,,---,0.01,VWS V14.00,2013-02-04 00:57:00,
2013-02-04 01:02:00,48.6,48.3,29.82,WSW,238,18.0,18.0,99,0.01,,---,0.01,VWS V14.00,2013-02-04 01:02:00,
2013-02-04 01:07:00,48.5,48.2,29.83,WSW,244,22.0,28.0,99,0.02,,---,0.02,VWS V14.00,2013-02-04 01:07:00,
2013-02-04 01:12:00,48.5,48.2,29.83,WSW,255,13.0,17.0,99,0.02,,---,0.02,VWS V14.00,2013-02-04 01:12:00,
2013-02-04 01:17:00,48.5,48.2,29.83,WSW,239,25.0,25.0,99,0.02,,---,0.02,VWS V14.00,2013-02-04 01:17:00,
2013-02-04 01:22:00,48.2,47.9,29.83,WSW,256,23.0,24.0,99,0.02,,---,0.02,VWS V14.00,2013-02-04 01:22:00,
2013-02-04 01:27:00,47.9,47.4,29.83,WSW,251,10.0,25.0,98,0.02,,---,0.02,VWS V14.00,2013-02-04 01:27:00,
2013-02-04 01:32:00,48.0,46.6,29.83,SW,227,21.0,21.0,95,0.02,,---,0.02,VWS V14.00,2013-02-04 01:32:00,
2013-02-04 01:37:00,48.1,46.2,29.84,West,275,13.0,24.0,93,0.02,,---,0.02,VWS V14.00,2013-02-04 01:37:00,
2013-02-04 01:42:00,48.2,46.0,29.84,WSW,240,26.0,33.0,92,0.02,,---,0.02,VWS V14.00,2013-02-04 01:42:00,
2013-02-04 01:47:00,48.3,45.5,29.85,SW,219,12.0,22.0,90,0.01,,---,0.02,VWS V14.00,2013-02-04 01:47:00,
2013-02-04 01:52:00,48.2,45.1,29.85,WSW,245,21.0,25.0,89,0.01,,---,0.02,VWS V14.00,2013-02-04 01:52:00,
2013-02-04 01:57:00,48.0,44.3,29.85,West,279,16.0,24.0,87,0.01,,---,0.02,VWS V14.00,2013-02-04 01:57:00,
2013-02-04 02:02:00,47.6,43.3,29.86,West,263,13.0,14.0,85,0.01,,---,0.02,VWS V14.00,2013-02-04 02:02:00,
2013-02-04 02:07:00,47.2,42.3,29.87,WSW,245,18.0,29.0,83,0.00,,---,0.02,VWS V14.00,2013-02-04 02:07:00,
2013-02-04 02:12:00,46.9,42.0,29.87,WSW,245,24.0,25.0,83,0.00,,---,0.02,VWS V14.00,2013-02-04 02:12:00,
2013-02-04 02:17:00,46.7,41.8,29.87,SW,229,12.0,15.0,83,0.00,,---,0.02,VWS V14.00,2013-02-04 02:17:00,
2013-02-04 02:23:00,46.6,41.1,29.87,West,260,25.0,37.0,81,0.00,,---,0.02,VWS V14.00,2013-02-04 02:23:00,
2013-02-04 02:28:00,46.5,40.7,29.88,West,271,24.0,24.0,80,0.00,,---,0.02,VWS V14.00,2013-02-04 02:28:00,
2013-02-04 02:33:00,46.3,40.2,29.88,West,268,20.0,24.0,79,0.00,,---,0.02,VWS V14.00,2013-02-04 02:33:00,
2013-02-04 02:38:00,46.0,39.2,29.88,West,274,23.0,26.0,77,0.00,,---,0.02,VWS V14.00,2013-02-04 02:38:00,
2013-02-04 02:43:00,45.9,39.1,29.88,WNW,287,17.0,26.0,77,0.00,,---,0.02,VWS V14.00,2013-02-04 02:43:00,
2013-02-04 02:48:00,45.8,39.3,29.88,West,260,13.0,21.0,78,0.00,,---,0.02,VWS V14.00,2013-02-04 02:48:00,
2013-02-04 02:53:00,45.7,39.2,29.88,SW,236,21.0,26.0,78,0.00,,---,0.02,VWS V14.00,2013-02-04 02:53:00,
2013-02-04 02:58:00,45.7,39.2,29.89,WSW,245,10.0,12.0,78,0.00,,---,0.02,VWS V14.00,2013-02-04 02:58:00,
2013-02-04 03:03:00,45.6,39.5,29.88,WNW,289,27.0,27.0,79,0.00,,---,0.02,VWS V14.00,2013-02-04 03:03:00,
2013-02-04 03:08:00,45.6,39.2,29.88,WSW,254,14.0,21.0,78,0.00,,---,0.02,VWS V14.00,2013-02-04 03:08:00,
2013-02-04 03:13:00,45.5,39.0,29.88,WSW,256,17.0,17.0,78,0.00,,---,0.02,VWS V14.00,2013-02-04 03:13:00,
2013-02-04 03:18:00,45.3,39.2,29.88,West,268,11.0,17.0,79,0.00,,---,0.02,VWS V14.00,2013-02-04 03:18:00,
2013-02-04 03:23:00,45.2,39.1,29.88,WSW,251,10.0,11.0,79,0.00,,---,0.02,VWS V14.00,2013-02-04 03:23:00,
2013-02-04 03:28:00,45.2,39.1,29.89,West,265,15.0,19.0,79,0.00,,---,0.02,VWS V14.00,2013-02-04 03:28:00,
2013-02-04 03:33:00,45.2,39.7,29.89,WSW,254,12.0,16.0,81,0.00,,---,0.02,VWS V14.00,2013-02-04 03:33:00,
2013-02-04 03:38:00,45.0,39.8,29.89,SSW,204,11.0,16.0,82,0.00,,---,0.02,VWS V14.00,2013-02-04 03:38:00,
2013-02-04 03:43:00,44.7,39.9,29.89,WSW,244,21.0,24.0,83,0.00,,---,0.02,VWS V14.00,2013-02-04 03:43:00,
2013-02-04 03:48:00,44.5,39.7,29.89,SW,229,18.0,18.0,83,0.00,,---,0.02,VWS V14.00,2013-02-04 03:48:00,
2013-02-04 03:53:00,44.3,39.8,29.88,SW,219,18.0,23.0,84,0.00,,---,0.02,VWS V14.00,2013-02-04 03:53:00,
2013-02-04 03:58:00,44.1,39.6,29.88,WSW,250,19.0,19.0,84,0.00,,---,0.02,VWS V14.00,2013-02-04 03:58:00,
2013-02-04 04:03:00,44.2,39.7,29.88,WSW,247,13.0,25.0,84,0.00,,---,0.02,VWS V14.00,2013-02-04 04:03:00,
2013-02-04 04:08:00,44.2,39.7,29.88,SW,235,21.0,25.0,84,0.00,,---,0.02,VWS V14.00,2013-02-04 04:08:00,
2013-02-04 04:13:00,44.2,39.7,29.88,WSW,240,19.0,22.0,84,0.00,,---,0.02,VWS V14.00,2013-02-04 04:13:00,
2013-02-04 04:18:00,44.2,39.1,29.88,SW,231,14.0,23.0,82,0.00,,---,0.02,VWS V14.00,2013-02-04 04:18:00,
2013-02-04 04:23:00,44.2,39.4,29.88,WSW,247,22.0,25.0,83,0.00,,---,0.02,VWS V14.00,2013-02-04 04:23:00,
2013-02-04 04:28:00,44.1,39.3,29.88,WSW,243,18.0,23.0,83,0.00,,---,0.02,VWS V14.00,2013-02-04 04:28:00,
2013-02-04 04:33:00,44.1,39.3,29.89,SW,234,17.0,26.0,83,0.00,,---,0.02,VWS V14.00,2013-02-04 04:33:00,
2013-02-04 04:38:00,44.1,38.7,29.88,West,271,24.0,27.0,81,0.00,,---,0.02,VWS V14.00,2013-02-04 04:38:00,
2013-02-04 04:43:00,44.2,38.4,29.88,WSW,247,26.0,33.0,80,0.00,,---,0.02,VWS V14.00,2013-02-04 04:43:00,
2013-02-04 04:48:00,44.1,38.7,29.87,SW,233,19.0,26.0,81,0.00,,---,0.02,VWS V14.00,2013-02-04 04:48:00,
2013-02-04 04:53:00,43.9,38.5,29.88,WSW,243,15.0,26.0,81,0.00,,---,0.02,VWS V14.00,2013-02-04 04:53:00,
2013-02-04 04:58:00,43.8,38.4,29.88,WSW,243,20.0,33.0,81,0.00,,---,0.02,VWS V14.00,2013-02-04 04:58:00,
2013-02-04 05:00:00,43.8,38.4,29.87,WSW,241,21.0,23.0,81,0.00,,---,0.02,VWS V14.00,2013-02-04 05:00:00,
2013-02-04 05:03:00,43.8,38.4,29.88,SW,226,24.0,26.0,81,0.00,,---,0.02,VWS V14.00,2013-02-04 05:03:00,
2013-02-04 05:04:00,43.8,38.4,29.88,SW,230,21.0,27.0,81,0.00,,---,0.02,VWS V14.00,2013-02-04 05:04:00,
2013-02-04 05:09:00,43.8,38.4,29.88,WSW,254,25.0,28.0,81,0.00,,---,0.02,VWS V14.00,2013-02-04 05:09:00,
2013-02-04 05:14:00,43.8,38.7,29.88,SW,226,15.0,26.0,82,0.00,,---,0.02,VWS V14.00,2013-02-04 05:14:00,
2013-02-04 05:19:00,43.8,38.7,29.89,WSW,237,19.0,25.0,82,0.00,,---,0.02,VWS V14.00,2013-02-04 05:19:00,
2013-02-04 05:24:00,43.9,38.8,29.89,WSW,240,20.0,22.0,82,0.00,,---,0.02,VWS V14.00,2013-02-04 05:24:00,
2013-02-04 05:29:00,44.0,38.9,29.89,WSW,249,34.0,34.0,82,0.00,,---,0.02,VWS V14.00,2013-02-04 05:29:00,
2013-02-04 05:34:00,43.8,39.6,29.89,West,270,7.0,21.0,85,0.00,,---,0.02,VWS V14.00,2013-02-04 05:34:00,
2013-02-04 05:39:00,43.4,39.5,29.89,WSW,240,11.0,22.0,86,0.00,,---,0.02,VWS V14.00,2013-02-04 05:39:00,
2013-02-04 05:41:00,43.3,39.7,29.89,West,262,10.0,21.0,87,0.00,,---,0.02,VWS V14.00,2013-02-04 05:41:00,
2013-02-04 05:46:00,43.2,39.6,29.90,SW,222,25.0,28.0,87,0.00,,---,0.02,VWS V14.00,2013-02-04 05:46:00,
2013-02-04 05:51:00,43.2,39.3,29.89,WSW,245,18.0,22.0,86,0.00,,---,0.02,VWS V14.00,2013-02-04 05:51:00,
2013-02-04 05:56:00,43.2,39.3,29.89,WSW,244,25.0,30.0,86,0.00,,---,0.02,VWS V14.00,2013-02-04 05:56:00,
2013-02-04 06:01:00,43.4,39.2,29.89,WSW,249,19.0,26.0,85,0.00,,---,0.02,VWS V14.00,2013-02-04 06:01:00,
2013-02-04 06:06:00,43.5,39.3,29.89,WSW,252,23.0,24.0,85,0.00,,---,0.02,VWS V14.00,2013-02-04 06:06:00,
2013-02-04 06:11:00,43.6,39.4,29.90,WSW,249,16.0,20.0,85,0.00,,---,0.02,VWS V14.00,2013-02-04 06:11:00,
2013-02-04 06:16:00,43.4,39.5,29.90,SW,232,27.0,31.0,86,0.00,,---,0.02,VWS V14.00,2013-02-04 06:16:00,
2013-02-04 06:21:00,43.3,39.4,29.90,West,260,14.0,15.0,86,0.00,,---,0.02,VWS V14.00,2013-02-04 06:21:00,
2013-02-04 06:26:00,43.0,39.4,29.91,WSW,256,15.0,15.0,87,0.00,,---,0.02,VWS V14.00,2013-02-04 06:26:00,
2013-02-04 06:31:00,42.6,39.6,29.91,WSW,251,11.0,20.0,89,0.01,,---,0.02,VWS V14.00,2013-02-04 06:31:00,
2013-02-04 06:36:00,42.3,39.3,29.90,West,262,20.0,21.0,89,0.01,,---,0.02,VWS V14.00,2013-02-04 06:36:00,
2013-02-04 06:41:00,42.1,38.8,29.90,WSW,246,17.0,17.0,88,0.01,,---,0.02,VWS V14.00,2013-02-04 06:41:00,
2013-02-04 06:47:00,42.0,38.4,29.90,WSW,247,11.0,23.0,87,0.01,,---,0.02,VWS V14.00,2013-02-04 06:47:00,
2013-02-04 06:52:00,42.0,38.1,29.90,WSW,248,19.0,20.0,86,0.01,,---,0.02,VWS V14.00,2013-02-04 06:52:00,
2013-02-04 06:58:00,42.1,37.9,29.90,SW,235,20.0,20.0,85,0.01,,---,0.02,VWS V14.00,2013-02-04 06:58:00,
2013-02-04 07:03:00,42.2,37.7,29.90,WSW,252,19.0,25.0,84,0.01,,---,0.02,VWS V14.00,2013-02-04 07:03:00,
2013-02-04 07:08:00,42.5,38.0,29.90,WSW,243,22.0,26.0,84,0.01,,---,0.02,VWS V14.00,2013-02-04 07:08:00,
2013-02-04 07:13:00,42.8,38.0,29.91,SW,235,19.0,26.0,83,0.01,,---,0.02,VWS V14.00,2013-02-04 07:13:00,
2013-02-04 07:18:00,43.0,38.2,29.91,SW,236,21.0,27.0,83,0.01,,---,0.02,VWS V14.00,2013-02-04 07:18:00,
2013-02-04 07:23:00,43.0,37.6,29.90,WSW,237,37.0,37.0,81,0.01,,---,0.02,VWS V14.00,2013-02-04 07:23:00,
2013-02-04 07:28:00,42.9,37.5,29.90,WSW,256,20.0,33.0,81,0.01,,---,0.02,VWS V14.00,2013-02-04 07:28:00,
2013-02-04 07:33:00,42.7,37.6,29.90,West,260,23.0,29.0,82,0.00,,---,0.02,VWS V14.00,2013-02-04 07:33:00,
2013-02-04 07:38:00,42.7,37.9,29.90,SSW,207,15.0,25.0,83,0.00,,---,0.02,VWS V14.00,2013-02-04 07:38:00,
2013-02-04 07:43:00,42.5,38.0,29.90,WSW,241,26.0,32.0,84,0.00,,---,0.02,VWS V14.00,2013-02-04 07:43:00,
2013-02-04 07:48:00,42.7,38.2,29.90,WSW,244,30.0,32.0,84,0.00,,---,0.02,VWS V14.00,2013-02-04 07:48:00,
2013-02-04 07:53:00,42.7,37.9,29.90,WSW,239,29.0,33.0,83,0.00,,---,0.02,VWS V14.00,2013-02-04 07:53:00,
2013-02-04 07:58:00,42.7,37.6,29.90,WSW,237,28.0,33.0,82,0.00,,---,0.02,VWS V14.00,2013-02-04 07:58:00,
2013-02-04 08:03:00,42.6,37.5,29.90,WSW,252,30.0,36.0,82,0.00,,---,0.02,VWS V14.00,2013-02-04 08:03:00,
2013-02-04 08:08:00,42.5,37.4,29.90,WSW,256,14.0,33.0,82,0.00,,---,0.02,VWS V14.00,2013-02-04 08:08:00,
2013-02-04 08:13:00,42.4,37.3,29.90,SW,234,22.0,25.0,82,0.00,,---,0.02,VWS V14.00,2013-02-04 08:13:00,
2013-02-04 08:18:00,42.4,37.0,29.90,WSW,241,18.0,18.0,81,0.00,,---,0.02,VWS V14.00,2013-02-04 08:18:00,
2013-02-04 08:23:00,42.3,37.2,29.90,WSW,256,14.0,18.0,82,0.00,,---,0.02,VWS V14.00,2013-02-04 08:23:00,
2013-02-04 08:28:00,42.3,37.2,29.91,SW,231,18.0,22.0,82,0.00,,---,0.02,VWS V14.00,2013-02-04 08:28:00,
2013-02-04 08:33:00,42.2,37.7,29.91,WSW,254,23.0,33.0,84,0.00,,---,0.02,VWS V14.00,2013-02-04 08:33:00,
2013-02-04 08:38:00,42.1,37.9,29.91,West,266,18.0,22.0,85,0.00,,---,0.02,VWS V14.00,2013-02-04 08:38:00,
2013-02-04 08:43:00,42.2,38.0,29.92,WSW,247,25.0,33.0,85,0.00,,---,0.02,VWS V14.00,2013-02-04 08:43:00,
2013-02-04 08:48:00,42.2,37.7,29.92,WSW,251,20.0,22.0,84,0.00,,---,0.02,VWS V14.00,2013-02-04 08:48:00,
2013-02-04 08:53:00,42.4,37.6,29.92,SW,218,31.0,31.0,83,0.00,,---,0.02,VWS V14.00,2013-02-04 08:53:00,
2013-02-04 08:58:00,42.5,37.7,29.92,WSW,252,34.0,34.0,83,0.00,,---,0.02,VWS V14.00,2013-02-04 08:58:00,
2013-02-04 09:03:00,42.5,37.7,29.91,WSW,239,18.0,29.0,83,0.00,,---,0.02,VWS V14.00,2013-02-04 09:03:00,
2013-02-04 09:08:00,42.5,37.7,29.91,WSW,240,20.0,31.0,83,0.00,,---,0.02,VWS V14.00,2013-02-04 09:08:00,
2013-02-04 09:13:00,42.5,38.0,29.91,WSW,243,21.0,28.0,84,0.00,,---,0.02,VWS V14.00,2013-02-04 09:13:00,
2013-02-04 09:18:00,42.5,38.0,29.91,WSW,240,26.0,26.0,84,0.00,,---,0.02,VWS V14.00,2013-02-04 09:18:00,
2013-02-04 09:24:00,42.6,38.1,29.91,WSW,242,12.0,30.0,84,0.01,,---,0.03,VWS V14.00,2013-02-04 09:24:00,
2013-02-04 09:29:00,42.7,38.2,29.91,SW,227,27.0,33.0,84,0.01,,---,0.03,VWS V14.00,2013-02-04 09:29:00,
2013-02-04 09:34:00,43.0,38.2,29.90,WSW,247,33.0,33.0,83,0.01,,---,0.03,VWS V14.00,2013-02-04 09:34:00,
2013-02-04 09:39:00,43.0,38.2,29.90,SW,233,17.0,27.0,83,0.01,,---,0.03,VWS V14.00,2013-02-04 09:39:00,
2013-02-04 09:44:00,43.0,38.2,29.91,West,260,19.0,29.0,83,0.01,,---,0.03,VWS V14.00,2013-02-04 09:44:00,
2013-02-04 09:49:00,43.0,38.2,29.90,West,261,20.0,25.0,83,0.01,,---,0.03,VWS V14.00,2013-02-04 09:49:00,
2013-02-04 09:54:00,43.0,37.6,29.90,SW,233,22.0,32.0,81,0.01,,---,0.03,VWS V14.00,2013-02-04 09:54:00,
2013-02-04 09:59:00,43.1,37.7,29.91,SW,219,23.0,29.0,81,0.01,,---,0.03,VWS V14.00,2013-02-04 09:59:00,
2013-02-04 10:04:00,43.1,37.4,29.91,WSW,239,20.0,30.0,80,0.01,,---,0.03,VWS V14.00,2013-02-04 10:04:00,
2013-02-04 10:09:00,43.1,37.4,29.91,SW,221,28.0,28.0,80,0.01,,---,0.03,VWS V14.00,2013-02-04 10:09:00,
2013-02-04 10:14:00,43.0,37.6,29.91,SW,229,19.0,29.0,81,0.01,,---,0.03,VWS V14.00,2013-02-04 10:14:00,
2013-02-04 10:19:00,42.9,37.5,29.90,SW,214,30.0,30.0,81,0.01,,---,0.03,VWS V14.00,2013-02-04 10:19:00,
2013-02-04 10:24:00,42.9,37.8,29.90,WSW,239,24.0,32.0,82,0.00,,---,0.03,VWS V14.00,2013-02-04 10:24:00,
2013-02-04 10:29:00,42.9,37.8,29.91,WSW,255,12.0,25.0,82,0.00,,---,0.03,VWS V14.00,2013-02-04 10:29:00,
2013-02-04 10:34:00,42.9,37.8,29.90,SW,227,28.0,31.0,82,0.00,,---,0.03,VWS V14.00,2013-02-04 10:34:00,
2013-02-04 10:39:00,42.9,37.8,29.91,WSW,249,24.0,27.0,82,0.00,,---,0.03,VWS V14.00,2013-02-04 10:39:00,
2013-02-04 10:44:00,42.9,37.8,29.90,SW,218,16.0,23.0,82,0.00,,---,0.03,VWS V14.00,2013-02-04 10:44:00,
2013-02-04 10:49:00,43.1,37.7,29.90,WSW,240,14.0,29.0,81,0.00,,---,0.03,VWS V14.00,2013-02-04 10:49:00,
2013-02-04 10:54:00,43.2,37.1,29.90,West,260,22.0,38.0,79,0.00,,---,0.03,VWS V14.00,2013-02-04 10:54:00,
2013-02-04 10:59:00,43.3,36.9,29.90,SW,235,24.0,24.0,78,0.00,,---,0.03,VWS V14.00,2013-02-04 10:59:00,
2013-02-04 11:04:00,43.5,36.8,29.90,West,263,25.0,32.0,77,0.00,,---,0.03,VWS V14.00,2013-02-04 11:04:00,
2013-02-04 11:09:00,43.6,36.9,29.90,West,262,29.0,31.0,77,0.00,,---,0.03,VWS V14.00,2013-02-04 11:09:00,
2013-02-04 11:14:00,43.7,37.3,29.90,SW,236,33.0,33.0,78,0.00,,---,0.03,VWS V14.00,2013-02-04 11:14:00,
2013-02-04 11:19:00,43.7,36.6,29.89,WSW,252,25.0,27.0,76,0.00,,---,0.03,VWS V14.00,2013-02-04 11:19:00,
2013-02-04 11:24:00,43.9,36.5,29.89,WSW,238,17.0,21.0,75,0.00,,---,0.03,VWS V14.00,2013-02-04 11:24:00,
2013-02-04 11:29:00,44.0,36.9,29.89,WSW,251,22.0,33.0,76,0.00,,---,0.03,VWS V14.00,2013-02-04 11:29:00,
2013-02-04 11:34:00,44.0,36.9,29.89,WSW,244,24.0,26.0,76,0.00,,---,0.03,VWS V14.00,2013-02-04 11:34:00,
2013-02-04 11:39:00,44.0,37.3,29.89,SW,233,25.0,33.0,77,0.00,,---,0.03,VWS V14.00,2013-02-04 11:39:00,
2013-02-04 11:44:00,44.1,37.0,29.89,SW,227,25.0,33.0,76,0.00,,---,0.03,VWS V14.00,2013-02-04 11:44:00,
2013-02-04 11:49:00,44.1,37.4,29.89,SW,214,17.0,26.0,77,0.00,,---,0.03,VWS V14.00,2013-02-04 11:49:00,
2013-02-04 11:54:00,44.1,37.4,29.89,WSW,243,28.0,28.0,77,0.00,,---,0.03,VWS V14.00,2013-02-04 11:54:00,
2013-02-04 12:00:00,44.2,37.8,29.89,West,259,37.0,37.0,78,0.00,,---,0.03,VWS V14.00,2013-02-04 12:00:00,
2013-02-04 12:05:00,44.2,37.8,29.89,WSW,249,18.0,25.0,78,0.00,,---,0.03,VWS V14.00,2013-02-04 12:05:00,
2013-02-04 12:10:00,44.1,38.0,29.89,SW,227,24.0,29.0,79,0.00,,---,0.03,VWS V14.00,2013-02-04 12:10:00,
2013-02-04 12:15:00,44.5,38.1,29.88,WSW,243,30.0,31.0,78,0.00,,---,0.03,VWS V14.00,2013-02-04 12:15:00,
2013-02-04 12:20:00,44.6,38.2,29.88,SW,227,34.0,34.0,78,0.00,,---,0.03,VWS V14.00,2013-02-04 12:20:00,
2013-02-04 12:25:00,44.5,38.7,29.88,WSW,241,27.0,33.0,80,0.00,,---,0.03,VWS V14.00,2013-02-04 12:25:00,
2013-02-04 12:30:00,43.9,38.5,29.89,West,269,27.0,40.0,81,0.00,,---,0.03,VWS V14.00,2013-02-04 12:30:00,
2013-02-04 12:35:00,43.6,38.2,29.88,SW,236,21.0,30.0,81,0.00,,---,0.03,VWS V14.00,2013-02-04 12:35:00,
2013-02-04 12:40:00,43.6,38.2,29.89,WSW,241,15.0,19.0,81,0.00,,---,0.03,VWS V14.00,2013-02-04 12:40:00,
2013-02-04 12:45:00,43.6,37.5,29.88,WSW,241,30.0,34.0,79,0.00,,---,0.03,VWS V14.00,2013-02-04 12:45:00,
2013-02-04 12:50:00,44.0,37.9,29.87,WSW,249,21.0,23.0,79,0.00,,---,0.03,VWS V14.00,2013-02-04 12:50:00,
2013-02-04 12:55:00,44.6,38.5,29.88,WSW,258,26.0,26.0,79,0.00,,---,0.03,VWS V14.00,2013-02-04 12:55:00,
2013-02-04 13:00:00,44.7,38.3,29.87,SW,235,25.0,29.0,78,0.00,,---,0.03,VWS V14.00,2013-02-04 13:00:00,
2013-02-04 13:05:00,44.7,38.3,29.87,SW,227,24.0,26.0,78,0.00,,---,0.03,VWS V14.00,2013-02-04 13:05:00,
2013-02-04 13:10:00,44.7,38.3,29.87,WSW,244,20.0,27.0,78,0.00,,---,0.03,VWS V14.00,2013-02-04 13:10:00,
2013-02-04 13:15:00,44.7,37.9,29.87,SW,222,32.0,34.0,77,0.00,,---,0.03,VWS V14.00,2013-02-04 13:15:00,
2013-02-04 13:20:00,44.8,37.7,29.86,WSW,240,32.0,32.0,76,0.00,,---,0.03,VWS V14.00,2013-02-04 13:20:00,
2013-02-04 13:25:00,44.7,37.9,29.87,West,261,22.0,31.0,77,0.00,,---,0.03,VWS V14.00,2013-02-04 13:25:00,
2013-02-04 13:30:00,44.9,38.1,29.87,WSW,237,24.0,27.0,77,0.00,,---,0.03,VWS V14.00,2013-02-04 13:30:00,
2013-02-04 13:35:00,44.8,38.4,29.87,WSW,247,18.0,33.0,78,0.00,,---,0.03,VWS V14.00,2013-02-04 13:35:00,
2013-02-04 13:40:00,43.1,38.9,29.87,SW,222,29.0,34.0,85,0.00,,---,0.03,VWS V14.00,2013-02-04 13:40:00,
2013-02-04 13:45:00,42.7,39.1,29.86,WSW,249,28.0,28.0,87,0.00,,---,0.03,VWS V14.00,2013-02-04 13:45:00,
2013-02-04 13:50:00,42.9,39.3,29.87,SW,233,22.0,32.0,87,0.00,,---,0.03,VWS V14.00,2013-02-04 13:50:00,
2013-02-04 13:55:00,43.2,39.0,29.86,WSW,258,15.0,25.0,85,0.00,,---,0.03,VWS V14.00,2013-02-04 13:55:00,
2013-02-04 14:00:00,43.2,39.0,29.87,SW,231,21.0,25.0,85,0.00,,---,0.03,VWS V14.00,2013-02-04 14:00:00,
2013-02-04 14:05:00,43.2,38.4,29.87,WSW,240,19.0,25.0,83,0.00,,---,0.03,VWS V14.00,2013-02-04 14:05:00,
2013-02-04 14:10:00,43.4,38.3,29.86,WSW,252,26.0,28.0,82,0.00,,---,0.03,VWS V14.00,2013-02-04 14:10:00,
2013-02-04 14:15:00,43.7,38.3,29.86,SW,222,24.0,31.0,81,0.00,,---,0.03,VWS V14.00,2013-02-04 14:15:00,
2013-02-04 14:20:00,43.8,38.0,29.86,WSW,252,18.0,32.0,80,0.00,,---,0.03,VWS V14.00,2013-02-04 14:20:00,
2013-02-04 14:25:00,43.6,37.8,29.85,West,262,16.0,23.0,80,0.00,,---,0.03,VWS V14.00,2013-02-04 14:25:00,
2013-02-04 14:30:00,43.6,38.2,29.86,WSW,241,22.0,29.0,81,0.00,,---,0.03,VWS V14.00,2013-02-04 14:30:00,
2013-02-04 14:35:00,43.9,38.1,29.86,WSW,252,22.0,35.0,80,0.00,,---,0.03,VWS V14.00,2013-02-04 14:35:00,
2013-02-04 14:40:00,44.0,38.2,29.84,WSW,241,33.0,40.0,80,0.00,,---,0.03,VWS V14.00,2013-02-04 14:40:00,
2013-02-04 14:45:00,44.1,38.0,29.85,SW,231,23.0,39.0,79,0.00,,---,0.03,VWS V14.00,2013-02-04 14:45:00,
2013-02-04 14:50:00,44.0,37.9,29.85,SW,236,15.0,20.0,79,0.00,,---,0.03,VWS V14.00,2013-02-04 14:50:00,
2013-02-04 14:55:00,43.8,38.7,29.84,WSW,242,20.0,25.0,82,0.00,,---,0.03,VWS V14.00,2013-02-04 14:55:00,
2013-02-04 15:00:00,43.6,38.8,29.84,SW,221,18.0,29.0,83,0.00,,---,0.03,VWS V14.00,2013-02-04 15:00:00,
2013-02-04 15:05:00,43.4,38.9,29.84,SW,229,9.0,17.0,84,0.00,,---,0.03,VWS V14.00,2013-02-04 15:05:00,
2013-02-04 15:10:00,43.1,38.9,29.84,SSW,211,22.0,32.0,85,0.00,,---,0.03,VWS V14.00,2013-02-04 15:10:00,
2013-02-04 15:15:00,42.8,38.9,29.84,SW,221,20.0,29.0,86,0.00,,---,0.03,VWS V14.00,2013-02-04 15:15:00,
2013-02-04 15:20:00,42.8,39.2,29.84,WSW,243,23.0,23.0,87,0.00,,---,0.03,VWS V14.00,2013-02-04 15:20:00,
2013-02-04 15:25:00,42.7,39.4,29.84,SW,231,26.0,30.0,88,0.00,,---,0.03,VWS V14.00,2013-02-04 15:25:00,
2013-02-04 15:30:00,42.7,38.8,29.83,WSW,252,22.0,28.0,86,0.00,,---,0.03,VWS V14.00,2013-02-04 15:30:00,
2013-02-04 15:35:00,42.8,38.9,29.83,WSW,244,15.0,27.0,86,0.00,,---,0.03,VWS V14.00,2013-02-04 15:35:00,
2013-02-04 15:40:00,43.1,38.6,29.83,SSW,192,12.0,15.0,84,0.00,,---,0.03,VWS V14.00,2013-02-04 15:40:00,
2013-02-04 15:45:00,43.2,38.1,29.82,WSW,251,18.0,29.0,82,0.00,,---,0.03,VWS V14.00,2013-02-04 15:45:00,
2013-02-04 15:50:00,43.2,38.1,29.83,WSW,243,18.0,33.0,82,0.00,,---,0.03,VWS V14.00,2013-02-04 15:50:00,
2013-02-04 15:55:00,43.1,38.3,29.83,SSW,211,32.0,32.0,83,0.00,,---,0.03,VWS V14.00,2013-02-04 15:55:00,
2013-02-04 16:00:00,43.1,38.3,29.82,NNE,20,17.0,28.0,83,0.00,,---,0.03,VWS V14.00,2013-02-04 16:00:00,
2013-02-04 16:05:00,43.0,38.2,29.82,WSW,251,24.0,27.0,83,0.00,,---,0.03,VWS V14.00,2013-02-04 16:05:00,
2013-02-04 16:10:00,42.9,38.4,29.81,WSW,241,33.0,33.0,84,0.00,,---,0.03,VWS V14.00,2013-02-04 16:10:00,
2013-02-04 16:15:00,42.7,38.5,29.82,West,266,16.0,31.0,85,0.00,,---,0.03,VWS V14.00,2013-02-04 16:15:00,
2013-02-04 16:20:00,42.6,38.4,29.81,SSW,206,12.0,21.0,85,0.00,,---,0.03,VWS V14.00,2013-02-04 16:20:00,
2013-02-04 16:25:00,42.5,38.3,29.81,SW,214,20.0,33.0,85,0.00,,---,0.03,VWS V14.00,2013-02-04 16:25:00,
2013-02-04 16:30:00,42.2,38.0,29.80,SW,224,21.0,30.0,85,0.00,,---,0.03,VWS V14.00,2013-02-04 16:30:00,
2013-02-04 16:35:00,42.0,38.1,29.80,WSW,254,15.0,24.0,86,0.00,,---,0.03,VWS V14.00,2013-02-04 16:35:00,
2013-02-04 16:40:00,42.0,38.1,29.80,SW,231,26.0,26.0,86,0.00,,---,0.03,VWS V14.00,2013-02-04 16:40:00,
2013-02-04 16:45:00,41.9,37.7,29.80,SW,227,18.0,26.0,85,0.00,,---,0.03,VWS V14.00,2013-02-04 16:45:00,
2013-02-04 16:50:00,42.2,38.0,29.80,WSW,243,22.0,33.0,85,0.00,,---,0.03,VWS V14.00,2013-02-04 16:50:00,
2013-02-04 16:55:00,42.2,37.7,29.79,SW,223,31.0,34.0,84,0.00,,---,0.03,VWS V14.00,2013-02-04 16:55:00,
2013-02-04 17:00:00,42.4,37.6,29.80,WSW,238,27.0,33.0,83,0.00,,---,0.03,VWS V14.00,2013-02-04 17:00:00,
2013-02-04 17:05:00,42.5,37.4,29.79,WSW,247,23.0,25.0,82,0.00,,---,0.03,VWS V14.00,2013-02-04 17:05:00,
2013-02-04 17:10:00,42.5,37.4,29.79,WSW,243,18.0,27.0,82,0.00,,---,0.03,VWS V14.00,2013-02-04 17:10:00,
2013-02-04 17:15:00,42.4,37.6,29.79,SW,225,24.0,29.0,83,0.00,,---,0.03,VWS V14.00,2013-02-04 17:15:00,
2013-02-04 17:20:00,42.3,37.5,29.80,SW,232,27.0,27.0,83,0.00,,---,0.03,VWS V14.00,2013-02-04 17:20:00,
2013-02-04 17:25:00,42.0,37.5,29.79,WSW,241,16.0,27.0,84,0.00,,---,0.03,VWS V14.00,2013-02-04 17:25:00,
2013-02-04 17:30:00,41.9,37.4,29.79,SSW,213,18.0,25.0,84,0.00,,---,0.03,VWS V14.00,2013-02-04 17:30:00,
2013-02-04 17:35:00,41.8,37.6,29.79,WSW,247,15.0,23.0,85,0.00,,---,0.03,VWS V14.00,2013-02-04 17:35:00,
2013-02-04 17:41:00,41.4,37.2,29.79,SW,220,22.0,25.0,85,0.00,,---,0.03,VWS V14.00,2013-02-04 17:41:00,
2013-02-04 17:46:00,41.1,36.9,29.78,WSW,242,22.0,32.0,85,0.00,,---,0.03,VWS V14.00,2013-02-04 17:46:00,
2013-02-04 17:51:00,40.9,36.8,29.78,SW,224,25.0,26.0,85,0.00,,---,0.03,VWS V14.00,2013-02-04 17:51:00,
2013-02-04 17:56:00,40.7,36.5,29.78,SSW,208,22.0,30.0,85,0.00,,---,0.03,VWS V14.00,2013-02-04 17:56:00,
2013-02-04 18:01:00,40.6,36.8,29.78,WSW,241,15.0,22.0,86,0.00,,---,0.03,VWS V14.00,2013-02-04 18:01:00,
2013-02-04 18:06:00,40.4,36.8,29.78,SW,218,21.0,21.0,87,0.00,,---,0.03,VWS V14.00,2013-02-04 18:06:00,
2013-02-04 18:11:00,40.4,37.1,29.77,WSW,245,16.0,32.0,88,0.00,,---,0.03,VWS V14.00,2013-02-04 18:11:00,
2013-02-04 18:16:00,40.4,37.1,29.77,SW,222,20.0,27.0,88,0.00,,---,0.03,VWS V14.00,2013-02-04 18:16:00,
2013-02-04 18:21:00,40.4,37.1,29.77,WSW,238,21.0,23.0,88,0.00,,---,0.03,VWS V14.00,2013-02-04 18:21:00,
2013-02-04 18:26:00,40.4,37.4,29.77,WSW,249,23.0,28.0,89,0.00,,---,0.03,VWS V14.00,2013-02-04 18:26:00,
2013-02-04 18:31:00,40.4,37.4,29.76,WSW,251,23.0,23.0,89,0.00,,---,0.03,VWS V14.00,2013-02-04 18:31:00,
2013-02-04 18:36:00,40.4,37.4,29.76,SW,216,26.0,28.0,89,0.00,,---,0.03,VWS V14.00,2013-02-04 18:36:00,
2013-02-04 18:41:00,40.4,37.1,29.75,WSW,238,19.0,24.0,88,0.00,,---,0.03,VWS V14.00,2013-02-04 18:41:00,
2013-02-04 18:46:00,40.5,37.2,29.75,SW,234,21.0,23.0,88,0.00,,---,0.03,VWS V14.00,2013-02-04 18:46:00,
2013-02-04 18:51:00,40.7,37.1,29.74,WSW,247,26.0,26.0,87,0.00,,---,0.03,VWS V14.00,2013-02-04 18:51:00,
2013-02-04 18:56:00,40.7,36.8,29.74,SW,227,20.0,33.0,86,0.00,,---,0.03,VWS V14.00,2013-02-04 18:56:00,
2013-02-04 19:01:00,40.5,36.7,29.73,SSW,213,32.0,33.0,86,0.00,,---,0.03,VWS V14.00,2013-02-04 19:01:00,
2013-02-04 19:06:00,40.2,36.7,29.73,WSW,245,34.0,34.0,87,0.00,,---,0.03,VWS V14.00,2013-02-04 19:06:00,
2013-02-04 19:11:00,39.7,36.7,29.73,SW,226,24.0,25.0,89,0.02,,---,0.05,VWS V14.00,2013-02-04 19:11:00,
2013-02-04 19:16:00,39.3,36.9,29.72,WSW,255,23.0,36.0,91,0.02,,---,0.06,VWS V14.00,2013-02-04 19:16:00,
2013-02-04 19:21:00,39.3,36.9,29.72,SW,230,36.0,36.0,91,0.02,,---,0.06,VWS V14.00,2013-02-04 19:21:00,
2013-02-04 19:26:00,39.1,36.7,29.72,SW,234,35.0,35.0,91,0.02,,---,0.06,VWS V14.00,2013-02-04 19:26:00,
2013-02-04 19:31:00,39.1,36.7,29.73,WSW,244,25.0,31.0,91,0.02,,---,0.06,VWS V14.00,2013-02-04 19:31:00,
2013-02-04 19:36:00,39.1,36.7,29.73,WSW,237,35.0,36.0,91,0.02,,---,0.06,VWS V14.00,2013-02-04 19:36:00,
2013-02-04 19:41:00,39.1,36.4,29.72,WSW,249,22.0,33.0,90,0.02,,---,0.06,VWS V14.00,2013-02-04 19:41:00,
2013-02-04 19:46:00,39.1,36.4,29.74,WSW,242,13.0,18.0,90,0.02,,---,0.06,VWS V14.00,2013-02-04 19:46:00,
2013-02-04 19:51:00,37.2,34.5,29.74,WSW,237,21.0,25.0,90,0.04,,---,0.07,VWS V14.00,2013-02-04 19:51:00,
2013-02-04 19:56:00,36.5,34.7,29.74,WSW,243,10.0,14.0,93,0.05,,---,0.08,VWS V14.00,2013-02-04 19:56:00,
2013-02-04 20:02:00,36.4,34.8,29.72,WSW,252,14.0,24.0,94,0.05,,---,0.08,VWS V14.00,2013-02-04 20:02:00,
2013-02-04 20:07:00,36.4,34.6,29.72,WSW,245,19.0,27.0,93,0.05,,---,0.08,VWS V14.00,2013-02-04 20:07:00,
2013-02-04 20:12:00,36.4,34.6,29.72,WSW,240,21.0,22.0,93,0.03,,---,0.08,VWS V14.00,2013-02-04 20:12:00,
2013-02-04 20:17:00,36.5,34.7,29.72,SW,234,20.0,30.0,93,0.02,,---,0.08,VWS V14.00,2013-02-04 20:17:00,
2013-02-04 20:22:00,36.7,34.6,29.73,SW,233,18.0,18.0,92,0.02,,---,0.08,VWS V14.00,2013-02-04 20:22:00,
2013-02-04 20:27:00,36.8,34.7,29.72,WSW,248,13.0,20.0,92,0.02,,---,0.08,VWS V14.00,2013-02-04 20:27:00,
2013-02-04 20:35:00,36.7,34.6,29.72,WSW,245,19.0,32.0,92,0.02,,---,0.08,VWS V14.00,2013-02-04 20:35:00,
2013-02-04 20:40:00,36.9,34.8,29.72,West,266,14.0,32.0,92,0.02,,---,0.08,VWS V14.00,2013-02-04 20:40:00,
2013-02-04 20:46:00,37.0,34.9,29.72,WSW,243,17.0,17.0,92,0.02,,---,0.08,VWS V14.00,2013-02-04 20:46:00,
2013-02-04 20:51:00,36.9,34.8,29.72,WSW,256,12.0,16.0,92,0.01,,---,0.08,VWS V14.00,2013-02-04 20:51:00,
2013-02-04 20:57:00,36.8,35.0,29.72,SW,218,12.0,14.0,93,0.00,,---,0.08,VWS V14.00,2013-02-04 20:57:00,
2013-02-04 21:02:00,36.8,35.0,29.72,SW,227,16.0,23.0,93,0.00,,---,0.08,VWS V14.00,2013-02-04 21:02:00,
2013-02-04 21:08:00,36.8,35.0,29.71,WSW,254,22.0,24.0,93,0.01,,---,0.09,VWS V14.00,2013-02-04 21:08:00,
2013-02-04 21:14:00,36.9,34.8,29.71,SW,229,20.0,22.0,92,0.01,,---,0.09,VWS V14.00,2013-02-04 21:14:00,
2013-02-04 21:19:00,36.8,34.4,29.71,WSW,241,32.0,32.0,91,0.01,,---,0.09,VWS V14.00,2013-02-04 21:19:00,
2013-02-04 21:24:00,36.8,34.4,29.71,WSW,243,23.0,30.0,91,0.01,,---,0.09,VWS V14.00,2013-02-04 21:24:00,
2013-02-04 21:29:00,36.8,34.4,29.70,WSW,244,22.0,26.0,91,0.01,,---,0.09,VWS V14.00,2013-02-04 21:29:00,
2013-02-04 21:35:00,36.6,34.0,29.70,WSW,243,18.0,25.0,90,0.01,,---,0.09,VWS V14.00,2013-02-04 21:35:00,
2013-02-04 21:41:00,36.6,33.7,29.70,WSW,241,17.0,26.0,89,0.01,,---,0.09,VWS V14.00,2013-02-04 21:41:00,
2013-02-04 21:46:00,36.6,33.7,29.71,West,259,13.0,19.0,89,0.01,,---,0.09,VWS V14.00,2013-02-04 21:46:00,
2013-02-04 21:51:00,35.8,33.4,29.71,WSW,245,19.0,29.0,91,0.01,,---,0.09,VWS V14.00,2013-02-04 21:51:00,
2013-02-04 21:56:00,34.8,33.0,29.70,WSW,247,14.0,20.0,93,0.01,,---,0.09,VWS V14.00,2013-02-04 21:56:00,
2013-02-04 22:01:00,34.8,33.5,29.70,WSW,239,14.0,26.0,95,0.02,,---,0.09,VWS V14.00,2013-02-04 22:01:00,
2013-02-04 22:07:00,34.9,33.6,29.69,WSW,254,26.0,26.0,95,0.01,,---,0.09,VWS V14.00,2013-02-04 22:07:00,
2013-02-04 22:13:00,35.0,33.7,29.69,WSW,247,19.0,29.0,95,0.01,,---,0.09,VWS V14.00,2013-02-04 22:13:00,
2013-02-04 22:18:00,35.1,33.5,29.69,SW,225,19.0,21.0,94,0.01,,---,0.09,VWS V14.00,2013-02-04 22:18:00,
2013-02-04 22:24:00,35.2,33.4,29.69,WSW,253,22.0,26.0,93,0.01,,---,0.09,VWS V14.00,2013-02-04 22:24:00,
2013-02-04 22:29:00,35.1,33.3,29.68,SW,229,24.0,24.0,93,0.01,,---,0.09,VWS V14.00,2013-02-04 22:29:00,
2013-02-04 22:34:00,35.1,33.0,29.68,WSW,255,22.0,24.0,92,0.01,,---,0.09,VWS V14.00,2013-02-04 22:34:00,
2013-02-04 22:40:00,35.0,32.9,29.68,SW,230,18.0,21.0,92,0.01,,---,0.09,VWS V14.00,2013-02-04 22:40:00,
2013-02-04 22:45:00,35.0,32.6,29.68,WSW,257,11.0,17.0,91,0.01,,---,0.09,VWS V14.00,2013-02-04 22:45:00,
2013-02-04 22:50:00,35.0,32.4,29.68,WSW,239,27.0,29.0,90,0.01,,---,0.09,VWS V14.00,2013-02-04 22:50:00,
2013-02-04 22:55:00,35.0,32.1,29.69,WNW,299,22.0,25.0,89,0.01,,---,0.09,VWS V14.00,2013-02-04 22:55:00,
2013-02-04 23:00:00,35.0,32.1,29.69,NNW,330,25.0,25.0,89,0.00,,---,0.09,VWS V14.00,2013-02-04 23:00:00,
2013-02-04 23:06:00,34.8,31.9,29.68,WNW,303,17.0,28.0,89,0.00,,---,0.09,VWS V14.00,2013-02-04 23:06:00,
2013-02-04 23:11:00,35.0,32.4,29.68,West,280,16.0,27.0,90,0.00,,---,0.09,VWS V14.00,2013-02-04 23:11:00,
2013-02-04 23:16:00,35.0,32.1,29.68,WNW,299,27.0,33.0,89,0.00,,---,0.09,VWS V14.00,2013-02-04 23:16:00,
2013-02-04 23:21:00,34.7,32.1,29.68,WNW,288,17.0,29.0,90,0.00,,---,0.09,VWS V14.00,2013-02-04 23:21:00,
2013-02-04 23:26:00,34.3,32.2,29.68,NW,316,22.0,25.0,92,0.00,,---,0.09,VWS V14.00,2013-02-04 23:26:00,
2013-02-04 23:31:00,34.0,32.2,29.68,NW,320,20.0,29.0,93,0.00,,---,0.09,VWS V14.00,2013-02-04 23:31:00,
2013-02-04 23:36:00,33.8,32.0,29.67,NW,307,20.0,29.0,93,0.00,,---,0.09,VWS V14.00,2013-02-04 23:36:00,
2013-02-04 23:41:00,33.7,31.6,29.68,WNW,283,17.0,21.0,92,0.00,,---,0.09,VWS V14.00,2013-02-04 23:41:00,
2013-02-04 23:46:00,33.6,31.8,29.68,WNW,299,11.0,23.0,93,0.00,,---,0.09,VWS V14.00,2013-02-04 23:46:00,
2013-02-04 23:52:00,33.5,31.7,29.68,NW,321,26.0,28.0,93,0.00,,---,0.09,VWS V14.00,2013-02-04 23:52:00,
2013-02-04 23:57:00,33.5,31.7,29.67,NW,315,15.0,17.0,93,0.00,,---,0.09,VWS V14.00,2013-02-04 23:57:00,